Time;durP1;ratioP1;P1;durP2;ratioP2;P2;SDS_P1;SDS_P2;PMS_P1;PMS_P2;Temp;Humidity;BMP_temperature;BMP_pressure;BME280_temperature;BME280_humidity;BME280_pressure;Samples;Min_cycle;Max_cycle;Signal;HPM_P1;HPM_P2
2022/04/27 00:01:15;;;;;;;0.20;0.20;;;8.60;99.90;;;;;;4972196;28;20019;-73
2022/04/27 00:03:41;;;;;;;0.00;0.00;;;8.60;99.90;;;;;;4954310;28;20034;-74
2022/04/27 00:06:08;;;;;;;1.40;0.77;;;8.60;99.90;;;;;;4970784;28;20117;-73
2022/04/27 00:08:34;;;;;;;0.25;0.25;;;8.60;99.90;;;;;;4972254;28;20034;-73
2022/04/27 00:11:00;;;;;;;2.72;0.75;;;8.60;99.90;;;;;;4971627;28;20038;-73
2022/04/27 00:13:26;;;;;;;0.10;0.10;;;8.70;99.90;;;;;;4969471;28;20073;-73
2022/04/27 00:15:51;;;;;;;0.35;0.35;;;8.60;99.90;;;;;;4954366;28;20081;-73
2022/04/27 00:18:17;;;;;;;0.32;0.32;;;8.70;99.90;;;;;;4972083;28;20531;-73
2022/04/27 00:20:43;;;;;;;0.00;0.00;;;8.70;99.90;;;;;;4971997;28;20027;-74
2022/04/27 00:23:09;;;;;;;0.10;0.10;;;8.60;99.90;;;;;;4953897;28;20026;-73
2022/04/27 00:25:36;;;;;;;0.40;0.40;;;8.70;99.90;;;;;;4953453;28;20056;-74
2022/04/27 00:28:02;;;;;;;1.40;1.20;;;8.60;99.90;;;;;;4952341;28;20030;-73
2022/04/27 00:30:28;;;;;;;0.10;0.10;;;8.60;99.90;;;;;;4965076;28;20031;-73
2022/04/27 00:32:54;;;;;;;0.80;0.80;;;8.60;99.90;;;;;;4954346;28;20126;-73
2022/04/27 00:35:19;;;;;;;0.15;0.15;;;8.60;99.90;;;;;;4971178;28;20403;-73
2022/04/27 00:37:45;;;;;;;0.20;0.20;;;8.60;99.90;;;;;;4971543;28;20090;-73
2022/04/27 00:40:12;;;;;;;0.95;0.95;;;8.60;99.90;;;;;;4954611;28;20027;-73
2022/04/27 00:42:37;;;;;;;1.00;1.00;;;8.60;99.90;;;;;;4954273;28;20034;-73
2022/04/27 00:45:05;;;;;;;0.20;0.20;;;8.60;99.90;;;;;;4954291;28;20717;-73
2022/04/27 00:47:31;;;;;;;0.28;0.28;;;8.60;99.90;;;;;;4954501;28;20117;-73
2022/04/27 00:49:58;;;;;;;0.10;0.10;;;8.60;99.90;;;;;;4953778;28;20114;-73
2022/04/27 00:52:24;;;;;;;0.22;0.22;;;8.60;99.90;;;;;;4953977;28;20054;-73
2022/04/27 00:54:55;;;;;;;0.20;0.20;;;8.60;99.90;;;;;;4962302;28;20070;-73
2022/04/27 00:57:24;;;;;;;0.10;0.10;;;8.60;99.90;;;;;;4968151;28;20114;-73
2022/04/27 00:59:51;;;;;;;0.15;0.15;;;8.60;99.90;;;;;;4970194;28;20034;-73
2022/04/27 01:02:16;;;;;;;1.38;1.30;;;8.70;99.90;;;;;;4964110;28;20034;-73
2022/04/27 01:04:42;;;;;;;0.77;0.77;;;8.70;99.90;;;;;;4969267;28;20022;-73
2022/04/27 01:07:11;;;;;;;0.20;0.20;;;8.70;99.90;;;;;;4969739;28;20030;-73
2022/04/27 01:09:37;;;;;;;0.65;0.65;;;8.70;99.90;;;;;;4967892;28;20174;-73
2022/04/27 01:12:04;;;;;;;0.38;0.38;;;8.60;99.90;;;;;;4974438;28;20153;-73
2022/04/27 01:14:49;;;;;;;1.73;1.38;;;8.70;99.90;;;;;;4953467;28;20030;-73
2022/04/27 01:17:14;;;;;;;0.47;0.47;;;8.70;99.90;;;;;;4967268;28;20606;-73
2022/04/27 01:19:40;;;;;;;0.00;0.00;;;8.60;99.90;;;;;;4953170;28;20042;-73
2022/04/27 01:22:07;;;;;;;0.10;0.10;;;8.60;99.90;;;;;;4953767;28;20578;-73
2022/04/27 01:24:32;;;;;;;4.18;1.35;;;8.60;99.90;;;;;;4961385;28;20403;-73
2022/04/27 01:26:58;;;;;;;0.32;0.32;;;8.60;99.90;;;;;;4967959;28;20027;-73
2022/04/27 01:29:25;;;;;;;0.10;0.10;;;8.60;99.90;;;;;;4964529;28;20038;-73
2022/04/27 01:31:53;;;;;;;1.35;1.25;;;8.50;99.90;;;;;;4961380;28;20534;-73
2022/04/27 01:34:20;;;;;;;1.30;1.20;;;8.50;99.90;;;;;;4992668;23;20049;-66
2022/04/27 01:36:46;;;;;;;0.60;0.60;;;8.40;99.90;;;;;;5009430;28;20552;-66
2022/04/27 01:39:12;;;;;;;0.10;0.10;;;8.40;99.90;;;;;;4998861;28;20025;-66
2022/04/27 01:41:39;;;;;;;1.23;1.20;;;8.40;99.90;;;;;;4995940;28;20029;-66
2022/04/27 01:44:06;;;;;;;0.40;0.40;;;8.40;99.90;;;;;;5005002;28;20042;-66
2022/04/27 01:46:32;;;;;;;0.40;0.40;;;8.40;99.90;;;;;;4987605;28;20026;-66
2022/04/27 01:48:58;;;;;;;0.73;0.73;;;8.40;99.90;;;;;;4986910;28;20038;-66
2022/04/27 01:54:15;;;;;;;1.55;0.90;;;8.30;99.90;;;;;;4971743;28;20018;-66
2022/04/27 01:56:45;;;;;;;0.70;0.70;;;8.40;99.90;;;;;;4986988;28;20054;-66
2022/04/27 01:59:12;;;;;;;2.22;0.80;;;8.40;99.90;;;;;;4988666;28;20650;-66
2022/04/27 02:01:39;;;;;;;2.00;1.08;;;8.40;99.90;;;;;;4988847;28;20042;-66
2022/04/27 02:04:05;;;;;;;0.98;0.32;;;8.40;99.90;;;;;;4984825;28;20018;-66
2022/04/27 02:06:31;;;;;;;1.17;1.05;;;8.40;99.90;;;;;;4988738;28;20402;-66
2022/04/27 02:08:57;;;;;;;2.28;1.08;;;8.40;99.90;;;;;;4988469;28;20041;-65
2022/04/27 02:11:26;;;;;;;0.73;0.73;;;8.40;99.90;;;;;;4988266;28;20034;-66
2022/04/27 02:13:54;;;;;;;2.38;0.88;;;8.40;99.90;;;;;;4961657;28;20027;-66
2022/04/27 02:16:23;;;;;;;0.75;0.75;;;8.40;99.90;;;;;;4997130;28;20505;-66
2022/04/27 02:18:49;;;;;;;1.10;1.00;;;8.40;99.90;;;;;;4988902;28;20033;-66
2022/04/27 02:21:16;;;;;;;1.13;0.85;;;8.40;99.90;;;;;;4992332;28;20038;-65
2022/04/27 02:23:42;;;;;;;2.47;1.60;;;8.40;99.90;;;;;;4988575;28;20442;-66
2022/04/27 02:26:08;;;;;;;0.15;0.15;;;8.40;99.90;;;;;;4990177;28;20035;-66
2022/04/27 02:28:34;;;;;;;0.28;0.28;;;8.40;99.90;;;;;;4991945;28;20034;-66
2022/04/27 02:30:59;;;;;;;0.10;0.10;;;8.40;99.90;;;;;;4993187;28;20044;-66
2022/04/27 02:33:25;;;;;;;0.10;0.10;;;8.40;99.90;;;;;;4991215;28;20025;-66
2022/04/27 02:35:51;;;;;;;0.63;0.63;;;8.40;99.90;;;;;;4973676;28;20442;-66
2022/04/27 02:38:18;;;;;;;2.92;0.65;;;8.40;99.90;;;;;;4975684;28;20478;-66
2022/04/27 02:40:44;;;;;;;0.60;0.60;;;8.30;99.90;;;;;;4982633;28;20378;-66
2022/04/27 02:43:09;;;;;;;1.77;1.65;;;8.30;99.90;;;;;;4986984;28;20425;-66
2022/04/27 02:45:35;;;;;;;0.20;0.20;;;8.30;99.90;;;;;;4983470;28;20077;-66
2022/04/27 02:48:00;;;;;;;0.25;0.25;;;8.20;99.90;;;;;;4988527;28;20027;-66
2022/04/27 02:53:10;;;;;;;2.20;2.03;;;8.10;99.90;;;;;;4974334;28;20049;-66
2022/04/27 02:55:36;;;;;;;0.00;0.00;;;8.00;99.90;;;;;;4978013;28;20035;-65
2022/04/27 02:58:02;;;;;;;0.82;0.82;;;8.00;99.90;;;;;;4991274;28;20034;-66
2022/04/27 03:00:30;;;;;;;0.15;0.15;;;8.00;99.90;;;;;;4984863;28;20048;-65
2022/04/27 03:02:57;;;;;;;0.25;0.25;;;8.00;99.90;;;;;;4983292;28;20100;-66
2022/04/27 03:05:23;;;;;;;0.25;0.25;;;7.90;99.90;;;;;;4983280;28;20027;-66
2022/04/27 03:07:49;;;;;;;0.40;0.40;;;7.80;99.90;;;;;;4974875;28;20022;-66
2022/04/27 03:10:15;;;;;;;0.43;0.43;;;7.80;99.90;;;;;;4988341;28;20022;-66
2022/04/27 03:12:41;;;;;;;1.45;0.75;;;7.80;99.90;;;;;;4986200;28;20031;-66
2022/04/27 03:15:08;;;;;;;0.40;0.40;;;7.80;99.90;;;;;;4980280;28;20026;-66
2022/04/27 03:17:34;;;;;;;0.20;0.20;;;7.70;99.90;;;;;;4982269;28;20030;-66
2022/04/27 03:19:59;;;;;;;0.85;0.85;;;7.70;99.90;;;;;;4965185;28;20022;-66
2022/04/27 03:22:25;;;;;;;0.38;0.38;;;7.70;99.90;;;;;;4973355;28;20505;-66
2022/04/27 03:24:51;;;;;;;0.73;0.73;;;7.60;99.90;;;;;;4984152;28;20125;-66
2022/04/27 03:27:16;;;;;;;0.95;0.88;;;7.60;99.90;;;;;;4982108;28;20042;-65
2022/04/27 03:29:42;;;;;;;1.67;1.58;;;7.50;99.90;;;;;;4992093;28;20518;-66
2022/04/27 03:32:10;;;;;;;0.30;0.30;;;7.50;99.90;;;;;;4991705;28;20030;-66
2022/04/27 03:34:36;;;;;;;0.50;0.50;;;7.50;99.90;;;;;;4990250;28;20040;-65
2022/04/27 03:37:02;;;;;;;0.13;0.13;;;7.50;99.90;;;;;;4987753;28;20122;-65
2022/04/27 03:39:27;;;;;;;0.10;0.10;;;7.40;99.90;;;;;;4981041;28;20542;-66
2022/04/27 03:41:53;;;;;;;0.60;0.60;;;7.40;99.90;;;;;;4990708;28;20078;-66
2022/04/27 03:44:19;;;;;;;0.52;0.52;;;7.30;99.90;;;;;;4973525;28;20065;-66
2022/04/27 03:46:45;;;;;;;2.35;0.65;;;7.40;99.90;;;;;;4983621;28;20133;-66
2022/04/27 03:49:10;;;;;;;2.33;0.98;;;7.30;99.90;;;;;;4990213;28;20035;-66
2022/04/27 03:51:36;;;;;;;0.00;0.00;;;7.30;99.90;;;;;;4994158;28;20045;-66
2022/04/27 03:54:02;;;;;;;0.47;0.47;;;7.30;99.90;;;;;;4989982;28;20109;-66
2022/04/27 03:56:27;;;;;;;1.70;1.38;;;7.20;99.90;;;;;;4989282;28;20105;-65
2022/04/27 03:58:53;;;;;;;6.63;1.85;;;7.20;99.90;;;;;;4991160;28;20058;-64
2022/04/27 04:01:19;;;;;;;0.32;0.30;;;7.10;99.90;;;;;;4980774;28;20501;-65
2022/04/27 04:03:44;;;;;;;0.20;0.20;;;7.20;99.90;;;;;;4989348;28;20122;-64
2022/04/27 04:06:10;;;;;;;1.05;1.05;;;7.20;99.90;;;;;;4989213;28;20022;-66
2022/04/27 04:08:36;;;;;;;0.55;0.55;;;7.20;99.90;;;;;;4983425;28;20030;-64
2022/04/27 04:11:02;;;;;;;0.93;0.90;;;7.10;99.90;;;;;;4991262;28;20767;-64
2022/04/27 04:13:27;;;;;;;1.17;1.10;;;7.10;99.90;;;;;;4970062;28;20031;-64
2022/04/27 04:15:53;;;;;;;0.57;0.57;;;7.00;99.90;;;;;;4994531;28;20022;-64
2022/04/27 04:18:19;;;;;;;0.13;0.13;;;7.10;99.90;;;;;;4991276;28;20386;-64
2022/04/27 04:20:45;;;;;;;0.57;0.57;;;7.00;99.90;;;;;;4983709;28;20030;-64
2022/04/27 04:23:10;;;;;;;0.50;0.50;;;7.10;99.90;;;;;;4988773;28;20022;-64
2022/04/27 04:28:32;;;;;;;0.30;0.30;;;7.00;99.90;;;;;;4980552;28;20113;-64
2022/04/27 04:31:04;;;;;;;1.50;1.38;;;7.00;99.90;;;;;;4985131;28;20482;-64
2022/04/27 04:33:31;;;;;;;0.38;0.38;;;7.10;99.90;;;;;;4953719;28;20034;-64
2022/04/27 04:35:58;;;;;;;0.30;0.30;;;7.10;99.90;;;;;;4990551;28;20410;-64
2022/04/27 04:38:23;;;;;;;0.88;0.88;;;7.00;99.90;;;;;;4973241;28;20105;-63
2022/04/27 04:40:50;;;;;;;0.50;0.50;;;7.00;99.90;;;;;;4989040;28;20453;-64
2022/04/27 04:43:15;;;;;;;0.35;0.35;;;7.00;99.90;;;;;;4989373;28;20032;-65
2022/04/27 04:45:42;;;;;;;1.55;1.40;;;7.00;99.90;;;;;;4989315;28;20034;-65
2022/04/27 04:48:08;;;;;;;0.30;0.30;;;7.00;99.90;;;;;;4989492;28;20034;-64
2022/04/27 04:50:36;;;;;;;0.20;0.20;;;7.00;99.90;;;;;;4990803;28;20030;-64
2022/04/27 04:53:02;;;;;;;0.15;0.15;;;7.00;99.90;;;;;;4990453;28;20390;-65
2022/04/27 04:55:29;;;;;;;0.20;0.20;;;7.00;99.90;;;;;;4989441;28;20032;-65
2022/04/27 04:57:55;;;;;;;1.83;1.23;;;7.00;99.90;;;;;;4989670;28;20037;-66
2022/04/27 05:00:21;;;;;;;1.77;1.67;;;7.00;99.90;;;;;;4989537;28;20030;-65
2022/04/27 05:02:46;;;;;;;0.20;0.20;;;7.00;99.90;;;;;;4991042;28;20499;-66
2022/04/27 05:05:12;;;;;;;0.45;0.45;;;7.00;99.90;;;;;;4990283;28;20038;-65
2022/04/27 05:07:38;;;;;;;4.28;0.90;;;7.00;99.90;;;;;;4990007;28;20033;-67
2022/04/27 05:10:05;;;;;;;4.85;1.02;;;7.10;99.90;;;;;;4990800;28;20420;-66
2022/04/27 05:12:34;;;;;;;1.10;1.00;;;7.10;99.90;;;;;;4990584;28;20032;-66
2022/04/27 05:15:00;;;;;;;0.30;0.30;;;7.20;99.90;;;;;;4995533;28;20018;-65
2022/04/27 05:17:26;;;;;;;0.30;0.22;;;7.20;99.90;;;;;;5010244;28;20034;-64
2022/04/27 05:19:52;;;;;;;0.73;0.73;;;7.20;99.90;;;;;;5010179;28;20330;-63
2022/04/27 05:22:19;;;;;;;2.40;0.70;;;7.20;99.90;;;;;;5008768;28;20415;-64
2022/04/27 05:24:45;;;;;;;0.25;0.25;;;7.20;99.90;;;;;;5008767;28;20037;-64
2022/04/27 05:27:11;;;;;;;0.90;0.90;;;7.30;99.90;;;;;;4996488;28;20394;-64
2022/04/27 05:32:21;;;;;;;0.95;0.95;;;7.70;99.90;;;;;;4990880;28;20026;-64
2022/04/27 05:34:47;;;;;;;0.65;0.65;;;7.50;99.90;;;;;;4990162;28;20138;-64
2022/04/27 05:37:13;;;;;;;0.57;0.57;;;7.50;99.90;;;;;;4990546;28;20077;-64
2022/04/27 05:39:38;;;;;;;0.85;0.85;;;7.60;99.90;;;;;;4990539;28;20030;-64
2022/04/27 05:42:04;;;;;;;0.55;0.55;;;7.70;99.90;;;;;;4989230;28;20109;-64
2022/04/27 05:44:31;;;;;;;0.50;0.50;;;7.80;99.90;;;;;;4988908;28;20418;-65
2022/04/27 05:46:57;;;;;;;0.93;0.90;;;7.90;99.90;;;;;;4990058;28;20108;-64
2022/04/27 05:49:23;;;;;;;1.13;1.10;;;8.00;99.90;;;;;;4986416;28;20038;-64
2022/04/27 05:51:49;;;;;;;1.67;1.58;;;8.00;99.90;;;;;;4973871;28;20031;-64
2022/04/27 05:54:15;;;;;;;0.50;0.50;;;8.10;99.90;;;;;;4974653;28;20479;-64
2022/04/27 05:56:42;;;;;;;1.50;1.15;;;8.20;99.90;;;;;;4970809;28;20065;-64
2022/04/27 05:59:09;;;;;;;0.90;0.90;;;8.30;99.90;;;;;;4994413;28;20030;-64
2022/04/27 06:01:35;;;;;;;3.70;3.00;;;8.30;99.90;;;;;;4989710;28;20037;-64
2022/04/27 06:04:01;;;;;;;8.80;2.40;;;8.30;99.90;;;;;;4977015;28;20030;-64
2022/04/27 06:06:27;;;;;;;1.75;1.65;;;8.30;99.90;;;;;;4977608;28;20526;-64
2022/04/27 06:08:53;;;;;;;4.68;3.20;;;8.30;99.90;;;;;;4994051;28;20128;-64
2022/04/27 06:11:19;;;;;;;4.85;2.78;;;8.50;99.90;;;;;;4960164;28;20081;-65
2022/04/27 06:13:47;;;;;;;3.13;1.48;;;8.50;99.90;;;;;;4993382;28;20034;-65
2022/04/27 06:16:14;;;;;;;0.88;0.88;;;8.60;99.90;;;;;;4994663;28;20394;-65
2022/04/27 06:18:41;;;;;;;1.88;1.20;;;8.70;99.90;;;;;;5009492;28;20029;-65
2022/04/27 06:21:08;;;;;;;0.30;0.30;;;8.80;99.90;;;;;;4994070;28;20034;-65
2022/04/27 06:23:35;;;;;;;0.73;0.73;;;8.90;99.90;;;;;;4992084;28;20038;-65
2022/04/27 06:26:02;;;;;;;0.35;0.35;;;8.90;99.90;;;;;;4990604;28;20022;-65
2022/04/27 06:28:28;;;;;;;2.13;1.35;;;8.90;99.90;;;;;;4975980;28;20181;-65
2022/04/27 06:30:53;;;;;;;1.10;1.10;;;8.90;99.90;;;;;;4993570;28;20550;-65
2022/04/27 06:33:19;;;;;;;0.47;0.47;;;8.90;99.90;;;;;;4993443;28;20030;-65
2022/04/27 06:35:46;;;;;;;0.20;0.20;;;8.90;99.90;;;;;;4993428;28;20038;-65
2022/04/27 06:38:12;;;;;;;1.42;0.82;;;9.00;99.90;;;;;;4993836;28;20481;-64
2022/04/27 06:40:38;;;;;;;1.13;0.85;;;9.10;99.90;;;;;;4976419;28;20041;-64
2022/04/27 06:43:04;;;;;;;0.65;0.65;;;9.50;99.90;;;;;;4993601;28;20041;-64
2022/04/27 06:45:31;;;;;;;1.45;0.95;;;9.40;99.90;;;;;;4993240;28;20030;-64
2022/04/27 06:47:57;;;;;;;1.70;1.45;;;9.50;99.90;;;;;;4993621;28;20035;-66
2022/04/27 06:50:23;;;;;;;1.48;1.38;;;9.60;99.90;;;;;;4993331;28;20209;-64
2022/04/27 06:52:50;;;;;;;1.65;1.00;;;9.60;99.90;;;;;;4992424;28;20070;-65
2022/04/27 06:55:17;;;;;;;2.30;1.23;;;9.70;99.90;;;;;;4991821;28;20105;-64
2022/04/27 06:57:43;;;;;;;0.52;0.52;;;9.80;99.90;;;;;;4974324;28;20038;-63
2022/04/27 07:00:10;;;;;;;0.30;0.30;;;9.80;99.90;;;;;;4988157;28;20041;-63
2022/04/27 07:02:37;;;;;;;1.13;0.77;;;9.80;99.90;;;;;;4988923;28;20037;-63
2022/04/27 07:05:05;;;;;;;1.15;1.05;;;9.90;99.90;;;;;;4989922;28;20077;-63
2022/04/27 07:07:34;;;;;;;1.58;1.48;;;10.00;99.90;;;;;;4991747;28;20034;-66
2022/04/27 07:10:00;;;;;;;0.55;0.55;;;10.00;99.90;;;;;;4975576;28;20030;-64
2022/04/27 07:12:26;;;;;;;4.10;1.33;;;10.10;99.90;;;;;;4992011;28;20040;-62
2022/04/27 07:14:52;;;;;;;0.10;0.10;;;10.00;99.90;;;;;;4975292;28;20101;-63
2022/04/27 07:17:18;;;;;;;0.90;0.90;;;10.10;99.90;;;;;;4993126;28;20035;-63
2022/04/27 07:19:44;;;;;;;5.85;1.45;;;10.20;99.90;;;;;;4989985;28;20018;-63
2022/04/27 07:22:11;;;;;;;0.30;0.30;;;10.20;99.90;;;;;;4990886;28;20540;-63
2022/04/27 07:24:37;;;;;;;2.60;0.98;;;10.30;99.90;;;;;;4955946;28;20034;-63
2022/04/27 07:27:04;;;;;;;0.40;0.40;;;10.20;99.90;;;;;;4991684;28;20044;-63
2022/04/27 07:29:30;;;;;;;0.13;0.13;;;10.20;99.90;;;;;;4992820;28;20411;-64
2022/04/27 07:31:56;;;;;;;2.60;1.48;;;10.30;99.90;;;;;;4992554;28;20427;-64
2022/04/27 07:34:22;;;;;;;2.85;1.98;;;10.50;99.90;;;;;;4989756;28;20121;-64
2022/04/27 07:36:48;;;;;;;2.15;1.48;;;10.70;99.90;;;;;;4989834;28;20482;-65
2022/04/27 07:39:14;;;;;;;4.47;0.60;;;10.70;99.90;;;;;;4992785;28;20026;-64
2022/04/27 07:41:40;;;;;;;1.55;1.45;;;10.80;99.90;;;;;;4992404;28;20034;-64
2022/04/27 07:44:06;;;;;;;0.73;0.68;;;10.80;99.90;;;;;;4991868;28;20025;-64
2022/04/27 07:46:33;;;;;;;3.65;1.95;;;10.90;99.90;;;;;;4990836;28;20045;-65
2022/04/27 07:48:59;;;;;;;0.20;0.20;;;10.90;99.90;;;;;;4987489;28;20420;-64
2022/04/27 07:51:25;;;;;;;0.50;0.50;;;10.80;99.90;;;;;;4974750;28;20034;-64
2022/04/27 07:53:51;;;;;;;0.32;0.32;;;10.90;99.90;;;;;;4991606;28;20030;-64
2022/04/27 07:56:16;;;;;;;4.70;2.13;;;11.00;99.90;;;;;;4991717;28;20022;-64
2022/04/27 07:58:42;;;;;;;0.98;0.75;;;11.10;99.90;;;;;;4991403;28;20045;-64
2022/04/27 08:01:09;;;;;;;1.75;1.65;;;11.20;99.90;;;;;;4990543;28;20077;-64
2022/04/27 08:03:34;;;;;;;0.40;0.40;;;11.30;99.90;;;;;;4973807;28;20077;-64
2022/04/27 08:06:04;;;;;;;0.75;0.75;;;11.30;99.90;;;;;;4990483;28;20022;-64
2022/04/27 08:08:31;;;;;;;1.35;1.02;;;11.40;99.90;;;;;;4990382;28;20114;-63
2022/04/27 08:10:57;;;;;;;0.22;0.22;;;11.50;99.90;;;;;;4990605;28;20026;-63
2022/04/27 08:13:23;;;;;;;0.32;0.32;;;11.60;99.90;;;;;;4990992;28;20045;-63
2022/04/27 08:15:49;;;;;;;2.30;2.10;;;11.70;99.90;;;;;;4979545;28;20030;-63
2022/04/27 08:18:15;;;;;;;0.10;0.10;;;11.70;99.90;;;;;;4973889;28;20039;-63
2022/04/27 08:23:32;;;;;;;2.15;1.20;;;11.90;99.90;;;;;;4973257;28;20060;-63
2022/04/27 08:26:01;;;;;;;0.47;0.47;;;11.80;99.90;;;;;;4973956;28;20026;-63
2022/04/27 08:28:28;;;;;;;0.15;0.15;;;12.00;99.90;;;;;;4973458;28;20172;-63
2022/04/27 08:30:54;;;;;;;0.52;0.52;;;12.10;99.90;;;;;;4991513;28;20022;-63
2022/04/27 08:33:20;;;;;;;1.33;1.15;;;12.00;99.90;;;;;;4990742;28;20026;-63
2022/04/27 08:35:47;;;;;;;0.75;0.52;;;12.20;99.90;;;;;;4973879;28;20150;-63
2022/04/27 08:38:14;;;;;;;1.25;0.60;;;12.30;99.90;;;;;;4987693;28;20386;-63
2022/04/27 08:40:46;;;;;;;0.60;0.60;;;12.30;99.90;;;;;;4990386;28;20095;-63
2022/04/27 08:43:13;;;;;;;0.63;0.63;;;12.50;99.90;;;;;;4990903;28;20038;-64
2022/04/27 08:45:42;;;;;;;1.45;0.80;;;12.40;99.90;;;;;;4991313;28;20138;-63
2022/04/27 08:48:10;;;;;;;0.10;0.10;;;12.50;99.90;;;;;;4989475;28;20046;-63
2022/04/27 08:50:36;;;;;;;0.47;0.47;;;12.70;99.90;;;;;;4973611;28;20104;-64
2022/04/27 08:53:03;;;;;;;0.35;0.35;;;13.00;99.90;;;;;;4985858;28;20046;-63
2022/04/27 08:55:29;;;;;;;1.05;1.00;;;13.20;99.90;;;;;;4990563;28;20022;-63
2022/04/27 08:58:17;;;;;;;0.40;0.40;;;13.40;99.90;;;;;;4990752;28;20030;-64
2022/04/27 09:00:45;;;;;;;0.85;0.85;;;13.60;99.90;;;;;;4990713;28;20132;-64
2022/04/27 09:03:37;;;;;;;4.05;1.40;;;13.70;99.90;;;;;;4988519;28;20034;-64
2022/04/27 09:06:07;;;;;;;0.13;0.13;;;13.70;99.90;;;;;;4973600;28;20402;-63
2022/04/27 09:08:40;;;;;;;0.90;0.88;;;14.00;99.90;;;;;;4973352;28;20042;-64
2022/04/27 09:11:16;;;;;;;1.10;1.10;;;13.90;99.90;;;;;;4990592;28;20037;-64
2022/04/27 09:13:53;;;;;;;0.63;0.63;;;14.00;99.90;;;;;;4990322;28;20018;-64
2022/04/27 09:16:23;;;;;;;0.20;0.20;;;13.90;99.90;;;;;;4958516;28;20536;-65
2022/04/27 09:21:54;;;;;;;1.33;0.50;;;14.20;99.90;;;;;;4989115;28;20026;-63
2022/04/27 09:24:20;;;;;;;1.42;1.33;;;14.10;99.90;;;;;;4971910;28;20120;-63
2022/04/27 09:27:15;;;;;;;0.30;0.30;;;14.20;99.90;;;;;;4972900;28;20096;-63
2022/04/27 09:29:41;;;;;;;0.55;0.30;;;14.60;99.90;;;;;;4971510;28;20074;-64
2022/04/27 09:32:08;;;;;;;0.80;0.73;;;14.70;99.90;;;;;;4984216;28;20031;-65
2022/04/27 09:34:49;;;;;;;0.15;0.15;;;14.70;99.90;;;;;;4990412;28;20037;-63
2022/04/27 09:37:24;;;;;;;1.55;0.85;;;15.10;99.90;;;;;;4972789;28;20554;-67
2022/04/27 09:40:14;;;;;;;0.05;0.05;;;15.40;99.90;;;;;;4973436;28;20026;-63
2022/04/27 09:42:46;;;;;;;0.10;0.10;;;15.60;99.90;;;;;;4989820;28;20042;-63
2022/04/27 09:45:25;;;;;;;0.47;0.40;;;15.80;99.90;;;;;;4973324;28;20038;-66
2022/04/27 09:47:57;;;;;;;0.47;0.47;;;15.90;99.90;;;;;;4976137;28;20034;-64
2022/04/27 09:50:23;;;;;;;0.73;0.73;;;16.20;99.90;;;;;;4990400;28;20117;-65
2022/04/27 09:52:49;;;;;;;1.25;1.05;;;15.90;99.90;;;;;;4988947;28;20026;-63
2022/04/27 09:55:15;;;;;;;1.00;0.65;;;15.00;99.90;;;;;;4992603;28;20085;-63
2022/04/27 09:57:43;;;;;;;2.05;0.90;;;15.20;99.90;;;;;;4989166;28;20026;-65
2022/04/27 10:00:12;;;;;;;4.50;1.40;;;15.30;99.90;;;;;;4972992;28;20128;-64
2022/04/27 10:02:43;;;;;;;0.70;0.25;;;15.70;99.90;;;;;;4990139;28;20041;-63
2022/04/27 10:05:09;;;;;;;0.70;0.70;;;16.00;99.90;;;;;;4988595;28;20498;-65
2022/04/27 10:07:35;;;;;;;0.25;0.25;;;16.60;99.90;;;;;;4969900;28;20110;-64
2022/04/27 10:10:04;;;;;;;0.35;0.35;;;17.00;99.90;;;;;;4970935;28;20030;-65
2022/04/27 10:12:38;;;;;;;2.95;0.52;;;16.90;99.90;;;;;;4985193;28;20061;-64
2022/04/27 10:15:13;;;;;;;1.35;1.10;;;16.70;99.90;;;;;;4973242;28;20105;-65
2022/04/27 10:17:39;;;;;;;0.35;0.35;;;16.60;99.90;;;;;;4989429;28;20033;-64
2022/04/27 10:20:32;;;;;;;0.20;0.20;;;16.60;99.90;;;;;;4989611;28;20027;-65
2022/04/27 10:23:34;;;;;;;1.30;0.98;;;16.70;99.90;;;;;;4968786;28;20034;-65
2022/04/27 10:26:11;;;;;;;1.50;1.40;;;16.80;99.90;;;;;;4973717;28;20042;-64
2022/04/27 10:28:53;;;;;;;1.08;1.00;;;16.10;99.90;;;;;;4989411;28;20027;-64
2022/04/27 10:31:46;;;;;;;0.55;0.55;;;16.20;99.90;;;;;;4962101;28;20091;-66
2022/04/27 10:34:22;;;;;;;0.32;0.32;;;17.00;99.90;;;;;;4992774;28;20062;-68
2022/04/27 10:36:58;;;;;;;1.42;0.85;;;17.20;99.90;;;;;;4999350;28;20035;-65
2022/04/27 10:39:32;;;;;;;4.53;1.02;;;16.20;99.90;;;;;;4976387;28;20022;-65
2022/04/27 10:42:04;;;;;;;0.52;0.52;;;16.60;99.90;;;;;;4975090;28;20034;-65
2022/04/27 10:44:48;;;;;;;0.22;0.22;;;16.90;99.90;;;;;;4993547;28;20034;-64
2022/04/27 10:47:19;;;;;;;0.35;0.35;;;17.10;99.90;;;;;;4971292;28;20030;-64
2022/04/27 10:49:48;;;;;;;3.22;0.43;;;17.20;99.90;;;;;;4993546;28;20029;-64
2022/04/27 10:52:15;;;;;;;0.45;0.45;;;17.00;99.90;;;;;;4992395;28;20034;-64
2022/04/27 10:54:41;;;;;;;0.65;0.65;;;16.80;99.90;;;;;;4992911;28;20363;-65
2022/04/27 10:57:16;;;;;;;3.15;0.85;;;16.80;99.90;;;;;;4989492;28;20026;-65
2022/04/27 10:59:47;;;;;;;1.52;1.20;;;16.80;99.90;;;;;;4991194;28;20113;-65
2022/04/27 11:02:40;;;;;;;0.03;0.03;;;16.70;99.90;;;;;;4975617;28;20377;-64
2022/04/27 11:05:20;;;;;;;0.30;0.30;;;16.70;99.90;;;;;;4991780;28;20505;-65
2022/04/27 11:08:09;;;;;;;0.32;0.32;;;16.50;99.90;;;;;;4992730;28;20046;-65
2022/04/27 11:10:39;;;;;;;0.35;0.25;;;16.40;99.90;;;;;;4991578;28;20038;-64
2022/04/27 11:13:08;;;;;;;0.32;0.32;;;16.30;99.90;;;;;;4992250;28;20045;-65
2022/04/27 11:15:34;;;;;;;1.95;1.85;;;16.30;99.90;;;;;;4991759;28;20027;-65
2022/04/27 11:18:04;;;;;;;0.50;0.50;;;16.40;99.90;;;;;;4992292;28;20040;-65
2022/04/27 11:20:36;;;;;;;2.05;0.95;;;16.30;99.90;;;;;;4992776;28;20037;-65
2022/04/27 11:23:20;;;;;;;0.70;0.65;;;16.40;99.90;;;;;;4991060;28;20038;-65
2022/04/27 11:25:51;;;;;;;0.38;0.38;;;16.60;99.90;;;;;;4991591;28;20132;-65
2022/04/27 11:28:18;;;;;;;1.60;1.08;;;16.70;99.90;;;;;;4990792;28;20045;-65
2022/04/27 11:30:44;;;;;;;0.93;0.77;;;17.00;99.90;;;;;;4975191;28;20054;-65
2022/04/27 11:33:11;;;;;;;0.50;0.50;;;17.00;99.90;;;;;;4990552;28;20026;-64
2022/04/27 11:35:46;;;;;;;1.00;0.95;;;17.40;99.90;;;;;;4988831;28;20034;-65
2022/04/27 11:38:20;;;;;;;3.50;1.77;;;17.80;99.90;;;;;;4974488;28;20398;-65
2022/04/27 11:40:48;;;;;;;2.08;1.45;;;18.50;99.90;;;;;;4991319;28;20045;-65
2022/04/27 11:43:24;;;;;;;0.60;0.57;;;18.60;99.90;;;;;;4991865;28;20042;-65
2022/04/27 11:45:50;;;;;;;1.65;1.17;;;19.00;98.90;;;;;;4992206;28;20033;-65
2022/04/27 11:48:18;;;;;;;0.80;0.77;;;18.80;98.00;;;;;;4973412;28;20037;-65
2022/04/27 11:50:44;;;;;;;1.55;1.30;;;18.40;99.70;;;;;;4992482;28;20046;-65
2022/04/27 11:53:14;;;;;;;0.80;0.80;;;18.10;98.60;;;;;;4990268;28;20528;-65
2022/04/27 11:55:41;;;;;;;1.75;1.58;;;18.40;99.50;;;;;;4974472;28;20381;-65
2022/04/27 11:58:07;;;;;;;1.95;1.02;;;18.20;99.20;;;;;;4991855;28;20065;-65
2022/04/27 12:00:34;;;;;;;1.10;1.10;;;18.00;99.90;;;;;;4990764;28;20134;-65
2022/04/27 12:03:06;;;;;;;0.40;0.40;;;18.00;99.80;;;;;;4991227;28;20026;-65
2022/04/27 12:05:35;;;;;;;0.40;0.40;;;17.70;99.90;;;;;;4974251;28;20089;-65
2022/04/27 12:08:06;;;;;;;0.22;0.22;;;18.30;98.80;;;;;;4989459;28;20093;-65
2022/04/27 12:10:45;;;;;;;0.63;0.63;;;18.40;99.20;;;;;;4991941;28;20034;-65
2022/04/27 12:13:13;;;;;;;0.35;0.35;;;18.30;98.70;;;;;;4990082;28;20037;-66
2022/04/27 12:15:47;;;;;;;0.25;0.25;;;18.40;98.30;;;;;;4974832;28;20022;-65
2022/04/27 12:18:22;;;;;;;0.73;0.73;;;19.10;98.00;;;;;;4990040;28;20521;-65
2022/04/27 12:20:48;;;;;;;0.00;0.00;;;20.00;95.90;;;;;;4990844;28;20071;-65
2022/04/27 12:23:23;;;;;;;6.82;2.58;;;19.90;94.30;;;;;;4990699;28;20153;-65
2022/04/27 12:25:57;;;;;;;0.45;0.30;;;19.40;96.10;;;;;;4987995;28;20034;-65
2022/04/27 12:28:47;;;;;;;0.98;0.80;;;20.40;93.70;;;;;;4991242;28;20034;-65
2022/04/27 12:31:15;;;;;;;0.35;0.35;;;21.00;93.30;;;;;;4976725;28;20031;-65
2022/04/27 12:33:49;;;;;;;0.65;0.65;;;20.70;91.50;;;;;;4990883;28;20031;-65
2022/04/27 12:39:22;;;;;;;0.75;0.75;;;21.00;90.70;;;;;;4980857;28;20387;-66
2022/04/27 12:41:51;;;;;;;1.35;1.02;;;19.70;92.40;;;;;;4973468;28;20045;-66
2022/04/27 12:44:34;;;;;;;5.22;1.48;;;19.10;92.40;;;;;;4989420;28;20042;-66
2022/04/27 12:47:11;;;;;;;0.13;0.13;;;19.00;94.90;;;;;;4975071;28;20034;-66
2022/04/27 12:49:43;;;;;;;0.63;0.50;;;19.40;94.10;;;;;;4973954;28;20065;-65
2022/04/27 12:52:29;;;;;;;0.82;0.80;;;20.50;91.90;;;;;;4990523;28;20074;-65
2022/04/27 12:55:08;;;;;;;1.67;1.58;;;21.10;90.90;;;;;;4990692;28;20117;-64
2022/04/27 12:57:55;;;;;;;1.65;0.68;;;20.70;90.50;;;;;;4989162;28;20544;-64
2022/04/27 13:00:43;;;;;;;1.35;1.08;;;20.10;89.40;;;;;;4974000;28;20053;-64
2022/04/27 13:03:10;;;;;;;2.08;1.27;;;18.90;93.00;;;;;;4970230;28;20162;-63
2022/04/27 13:05:41;;;;;;;1.88;0.73;;;19.20;92.30;;;;;;4973158;28;20113;-63
2022/04/27 13:08:10;;;;;;;;;;;19.20;91.70;;;;;;4969414;28;20489;-63
2022/04/27 13:13:24;;;;;;;3.30;2.22;;;19.10;92.30;;;;;;4971541;28;20169;-63
2022/04/27 13:15:50;;;;;;;0.40;0.40;;;19.40;93.40;;;;;;4990805;28;20511;-63
2022/04/27 13:18:17;;;;;;;0.20;0.20;;;19.40;91.70;;;;;;4981834;28;20038;-63
2022/04/27 13:20:44;;;;;;;4.85;0.98;;;19.80;90.70;;;;;;4987285;28;20294;-63
2022/04/27 13:23:11;;;;;;;0.22;0.22;;;19.10;90.80;;;;;;4989023;28;20031;-63